SBUA/SJL METAR and TAF weather

Enter ICAO airport designator
Station Type Date Time Source
SBUA METAR 2020/01/23 19:00 UTC NOAA

SBUA 231900Z 13004KT 9999 SCT030 34/27 Q1006


Station Type Date Time Source
SBUA Decoded METAR 2020/01/23 19:00 UTC NOAA

Sao Gabriel Da Cachoeira, Brazil (SBUA) 00-08S 067-05W
Jan 23, 2020 - 02:00 PM EST / 2020.01.23 1900 UTC
Wind: from the SE (130 degrees) at 5 MPH (4 KT):0
Visibility: greater than 7 mile(s):0
Sky conditions: partly cloudy
Temperature: 93 F (34 C)
Heat index: 113.0 F (45.0 C):1
Dew Point: 80 F (27 C)
Relative Humidity: 67%
Pressure (altimeter): 29.71 in. Hg (1006 hPa)
ob: SBUA 231900Z 13004KT 9999 SCT030 34/27 Q1006
cycle: 19

Station Type Date Time Source
SBUA TAF 2015/12/16 12:56 UTC NOAA

SBUA 161000Z 1612/1624 00000KT 8000 BKN008 FEW025TCU TN25/1612Z TX34/ 1618Z
BECMG 1613/1615 32005KT 9999 BKN015
BECMG 1617/1619 06005KT SCT017 FEW025TCU PROB40 1619/1622 4000 TSRA BKN015 FEW025CB
RMK PDZ

Example: see airport list